sensor_id;sensor_type;location;lat;lon;timestamp;pressure;altitude;pressure_sealevel;temperature;humidity
44351;BME280;62766;62.622;17.912;2022-12-13T00:01:09;100965.39;;;-9.51;58.24
44351;BME280;62766;62.622;17.912;2022-12-13T00:03:38;100965.15;;;-9.59;58.17
44351;BME280;62766;62.622;17.912;2022-12-13T00:06:09;100965.09;;;-9.45;58.17
44351;BME280;62766;62.622;17.912;2022-12-13T00:08:38;100956.54;;;-9.44;57.81
44351;BME280;62766;62.622;17.912;2022-12-13T00:11:09;100957.60;;;-9.36;57.67
44351;BME280;62766;62.622;17.912;2022-12-13T00:13:41;100945.05;;;-9.30;57.47
44351;BME280;62766;62.622;17.912;2022-12-13T00:16:12;100947.08;;;-9.38;57.61
44351;BME280;62766;62.622;17.912;2022-12-13T00:18:42;100946.54;;;-9.47;57.76
44351;BME280;62766;62.622;17.912;2022-12-13T00:21:12;100949.60;;;-9.47;57.66
44351;BME280;62766;62.622;17.912;2022-12-13T00:23:43;100937.96;;;-9.27;57.43
44351;BME280;62766;62.622;17.912;2022-12-13T00:26:13;100933.07;;;-9.39;57.35
44351;BME280;62766;62.622;17.912;2022-12-13T00:28:42;100920.98;;;-9.32;57.28
44351;BME280;62766;62.622;17.912;2022-12-13T00:31:11;100913.68;;;-9.38;57.17
44351;BME280;62766;62.622;17.912;2022-12-13T00:33:40;100905.59;;;-9.40;57.28
44351;BME280;62766;62.622;17.912;2022-12-13T00:36:09;100902.24;;;-9.44;57.55
44351;BME280;62766;62.622;17.912;2022-12-13T00:38:37;100898.38;;;-9.51;57.58
44351;BME280;62766;62.622;17.912;2022-12-13T00:41:10;100895.68;;;-9.35;57.55
44351;BME280;62766;62.622;17.912;2022-12-13T00:43:38;100894.85;;;-9.41;57.36
44351;BME280;62766;62.622;17.912;2022-12-13T00:46:11;100888.19;;;-9.30;57.40
44351;BME280;62766;62.622;17.912;2022-12-13T00:48:42;100888.68;;;-9.39;57.44
44351;BME280;62766;62.622;17.912;2022-12-13T00:51:12;100876.81;;;-9.52;57.63
44351;BME280;62766;62.622;17.912;2022-12-13T00:53:40;100881.92;;;-9.44;57.58
44351;BME280;62766;62.622;17.912;2022-12-13T00:56:11;100870.31;;;-9.45;57.45
44351;BME280;62766;62.622;17.912;2022-12-13T00:58:40;100869.98;;;-9.41;57.42
44351;BME280;62766;62.622;17.912;2022-12-13T01:01:11;100860.71;;;-9.58;57.44
44351;BME280;62766;62.622;17.912;2022-12-13T01:03:41;100869.64;;;-9.58;57.41
44351;BME280;62766;62.622;17.912;2022-12-13T01:06:12;100862.32;;;-9.54;57.54
44351;BME280;62766;62.622;17.912;2022-12-13T01:08:41;100852.75;;;-9.50;57.42
44351;BME280;62766;62.622;17.912;2022-12-13T01:11:11;100853.58;;;-9.59;57.38
44351;BME280;62766;62.622;17.912;2022-12-13T01:13:40;100844.82;;;-9.53;57.46
44351;BME280;62766;62.622;17.912;2022-12-13T01:16:10;100835.28;;;-9.50;57.31
44351;BME280;62766;62.622;17.912;2022-12-13T01:18:40;100830.67;;;-9.44;57.11
44351;BME280;62766;62.622;17.912;2022-12-13T01:21:10;100832.91;;;-9.34;56.86
44351;BME280;62766;62.622;17.912;2022-12-13T01:23:39;100827.92;;;-9.27;56.79
44351;BME280;62766;62.622;17.912;2022-12-13T01:26:09;100818.72;;;-9.25;56.61
44351;BME280;62766;62.622;17.912;2022-12-13T01:28:38;100824.49;;;-9.43;56.66
44351;BME280;62766;62.622;17.912;2022-12-13T01:31:09;100821.35;;;-9.25;56.45
44351;BME280;62766;62.622;17.912;2022-12-13T01:33:38;100822.06;;;-9.40;56.56
44351;BME280;62766;62.622;17.912;2022-12-13T01:36:09;100822.39;;;-9.41;56.48
44351;BME280;62766;62.622;17.912;2022-12-13T01:38:39;100814.77;;;-9.46;56.55
44351;BME280;62766;62.622;17.912;2022-12-13T01:41:09;100809.85;;;-9.41;56.36
44351;BME280;62766;62.622;17.912;2022-12-13T01:43:53;100800.22;;;-9.57;56.71
44351;BME280;62766;62.622;17.912;2022-12-13T01:46:23;100790.05;;;-9.45;56.42
44351;BME280;62766;62.622;17.912;2022-12-13T01:48:58;100780.62;;;-9.53;56.35
44351;BME280;62766;62.622;17.912;2022-12-13T01:51:36;100772.64;;;-9.58;56.45
44351;BME280;62766;62.622;17.912;2022-12-13T01:54:09;100774.80;;;-9.52;56.48
44351;BME280;62766;62.622;17.912;2022-12-13T01:56:43;100764.03;;;-9.49;56.05
44351;BME280;62766;62.622;17.912;2022-12-13T01:59:16;100756.50;;;-9.39;55.90
44351;BME280;62766;62.622;17.912;2022-12-13T02:01:46;100743.14;;;-9.49;55.95
44351;BME280;62766;62.622;17.912;2022-12-13T02:04:15;100745.03;;;-9.59;56.19
44351;BME280;62766;62.622;17.912;2022-12-13T02:06:46;100733.52;;;-9.63;55.96
44351;BME280;62766;62.622;17.912;2022-12-13T02:09:16;100733.78;;;-9.63;56.28
44351;BME280;62766;62.622;17.912;2022-12-13T02:11:45;100725.96;;;-9.63;56.04
44351;BME280;62766;62.622;17.912;2022-12-13T02:14:13;100720.63;;;-9.63;55.97
44351;BME280;62766;62.622;17.912;2022-12-13T02:16:48;100717.64;;;-9.76;56.07
44351;BME280;62766;62.622;17.912;2022-12-13T02:20:05;100701.38;;;-9.80;56.11
44351;BME280;62766;62.622;17.912;2022-12-13T02:23:06;100699.70;;;-9.80;56.14
44351;BME280;62766;62.622;17.912;2022-12-13T02:25:55;100689.47;;;-9.69;55.86
44351;BME280;62766;62.622;17.912;2022-12-13T02:28:44;100685.68;;;-9.65;55.78
44351;BME280;62766;62.622;17.912;2022-12-13T02:31:22;100698.44;;;-9.78;55.76
44351;BME280;62766;62.622;17.912;2022-12-13T02:33:59;100681.94;;;-9.71;55.65
44351;BME280;62766;62.622;17.912;2022-12-13T02:36:33;100684.07;;;-9.78;55.82
44351;BME280;62766;62.622;17.912;2022-12-13T02:39:09;100681.08;;;-9.73;55.62
44351;BME280;62766;62.622;17.912;2022-12-13T02:41:46;100666.06;;;-9.63;55.63
44351;BME280;62766;62.622;17.912;2022-12-13T02:44:19;100665.88;;;-9.72;55.44
44351;BME280;62766;62.622;17.912;2022-12-13T02:46:54;100668.82;;;-9.78;55.49
44351;BME280;62766;62.622;17.912;2022-12-13T02:49:28;100662.51;;;-9.71;55.41
44351;BME280;62766;62.622;17.912;2022-12-13T02:51:58;100653.67;;;-9.70;55.33
44351;BME280;62766;62.622;17.912;2022-12-13T02:54:29;100642.47;;;-9.74;55.32
44351;BME280;62766;62.622;17.912;2022-12-13T02:56:59;100638.01;;;-9.77;55.20
44351;BME280;62766;62.622;17.912;2022-12-13T02:59:30;100634.30;;;-9.70;55.14
44351;BME280;62766;62.622;17.912;2022-12-13T03:02:12;100634.06;;;-9.82;55.10
44351;BME280;62766;62.622;17.912;2022-12-13T03:04:52;100632.05;;;-9.84;55.14
44351;BME280;62766;62.622;17.912;2022-12-13T03:07:29;100625.57;;;-9.68;55.01
44351;BME280;62766;62.622;17.912;2022-12-13T03:10:05;100620.47;;;-9.69;54.84
44351;BME280;62766;62.622;17.912;2022-12-13T03:12:40;100608.44;;;-9.49;54.61
44351;BME280;62766;62.622;17.912;2022-12-13T03:15:16;100604.57;;;-9.80;54.89
44351;BME280;62766;62.622;17.912;2022-12-13T03:17:50;100600.59;;;-9.92;55.10
44351;BME280;62766;62.622;17.912;2022-12-13T03:20:23;100604.39;;;-10.04;55.28
44351;BME280;62766;62.622;17.912;2022-12-13T03:22:52;100591.07;;;-9.99;55.39
44351;BME280;62766;62.622;17.912;2022-12-13T03:25:25;100588.86;;;-9.95;55.30
44351;BME280;62766;62.622;17.912;2022-12-13T03:27:54;100591.82;;;-10.10;55.47
44351;BME280;62766;62.622;17.912;2022-12-13T03:30:23;100585.83;;;-9.96;55.20
44351;BME280;62766;62.622;17.912;2022-12-13T03:32:52;100570.82;;;-10.07;55.26
44351;BME280;62766;62.622;17.912;2022-12-13T03:35:21;100565.51;;;-9.92;55.12
44351;BME280;62766;62.622;17.912;2022-12-13T03:37:50;100564.85;;;-9.95;55.15
44351;BME280;62766;62.622;17.912;2022-12-13T03:40:19;100563.84;;;-9.89;54.84
44351;BME280;62766;62.622;17.912;2022-12-13T03:42:47;100559.59;;;-9.81;54.87
44351;BME280;62766;62.622;17.912;2022-12-13T03:45:16;100547.55;;;-9.92;54.89
44351;BME280;62766;62.622;17.912;2022-12-13T03:47:47;100541.97;;;-9.89;54.70
44351;BME280;62766;62.622;17.912;2022-12-13T03:50:16;100544.96;;;-10.00;54.77
44351;BME280;62766;62.622;17.912;2022-12-13T03:52:44;100531.34;;;-10.10;55.13
44351;BME280;62766;62.622;17.912;2022-12-13T03:55:13;100532.16;;;-10.14;55.13
44351;BME280;62766;62.622;17.912;2022-12-13T03:57:42;100521.70;;;-10.00;54.71
44351;BME280;62766;62.622;17.912;2022-12-13T04:00:12;100518.26;;;-9.95;54.63
44351;BME280;62766;62.622;17.912;2022-12-13T04:02:41;100511.26;;;-9.96;54.66
44351;BME280;62766;62.622;17.912;2022-12-13T04:05:10;100506.36;;;-9.85;54.48
44351;BME280;62766;62.622;17.912;2022-12-13T04:07:39;100502.47;;;-10.07;54.52
44351;BME280;62766;62.622;17.912;2022-12-13T04:10:09;100491.84;;;-10.08;54.65
44351;BME280;62766;62.622;17.912;2022-12-13T04:12:37;100481.81;;;-10.04;54.60
44351;BME280;62766;62.622;17.912;2022-12-13T04:15:07;100472.14;;;-10.02;54.78
44351;BME280;62766;62.622;17.912;2022-12-13T04:17:36;100466.96;;;-10.16;54.80
44351;BME280;62766;62.622;17.912;2022-12-13T04:20:06;100455.02;;;-10.05;54.83
44351;BME280;62766;62.622;17.912;2022-12-13T04:22:35;100452.93;;;-10.27;54.77
44351;BME280;62766;62.622;17.912;2022-12-13T04:25:05;100446.34;;;-10.27;54.75
44351;BME280;62766;62.622;17.912;2022-12-13T04:27:34;100445.68;;;-10.16;54.60
44351;BME280;62766;62.622;17.912;2022-12-13T04:30:05;100432.08;;;-10.32;54.80
44351;BME280;62766;62.622;17.912;2022-12-13T04:32:35;100432.84;;;-10.26;54.72
44351;BME280;62766;62.622;17.912;2022-12-13T04:35:04;100418.15;;;-10.30;54.70
44351;BME280;62766;62.622;17.912;2022-12-13T04:37:33;100418.22;;;-10.21;54.54
44351;BME280;62766;62.622;17.912;2022-12-13T04:40:01;100418.24;;;-10.36;54.74
44351;BME280;62766;62.622;17.912;2022-12-13T04:42:30;100401.18;;;-10.29;54.84
44351;BME280;62766;62.622;17.912;2022-12-13T04:44:58;100400.81;;;-10.36;54.77
44351;BME280;62766;62.622;17.912;2022-12-13T04:47:27;100397.01;;;-10.51;54.89
44351;BME280;62766;62.622;17.912;2022-12-13T04:49:56;100388.51;;;-10.49;54.98
44351;BME280;62766;62.622;17.912;2022-12-13T04:52:25;100384.34;;;-10.38;54.51
44351;BME280;62766;62.622;17.912;2022-12-13T04:54:54;100385.55;;;-10.56;54.76
44351;BME280;62766;62.622;17.912;2022-12-13T04:57:23;100376.19;;;-10.53;54.79
44351;BME280;62766;62.622;17.912;2022-12-13T04:59:51;100372.73;;;-10.46;54.86
44351;BME280;62766;62.622;17.912;2022-12-13T05:03:18;100370.51;;;-10.68;55.02
44351;BME280;62766;62.622;17.912;2022-12-13T05:05:47;100367.59;;;-10.68;54.99
44351;BME280;62766;62.622;17.912;2022-12-13T05:08:16;100364.58;;;-10.73;55.04
44351;BME280;62766;62.622;17.912;2022-12-13T05:10:45;100360.89;;;-10.68;55.08
44351;BME280;62766;62.622;17.912;2022-12-13T05:13:13;100359.52;;;-10.64;55.18
44351;BME280;62766;62.622;17.912;2022-12-13T05:15:42;100357.43;;;-10.57;54.94
44351;BME280;62766;62.622;17.912;2022-12-13T05:18:11;100352.60;;;-10.67;54.79
44351;BME280;62766;62.622;17.912;2022-12-13T05:20:41;100348.90;;;-10.59;54.47
44351;BME280;62766;62.622;17.912;2022-12-13T05:23:09;100337.89;;;-10.52;54.61
44351;BME280;62766;62.622;17.912;2022-12-13T05:25:39;100336.62;;;-10.56;54.50
44351;BME280;62766;62.622;17.912;2022-12-13T05:28:08;100331.56;;;-10.63;54.37
44351;BME280;62766;62.622;17.912;2022-12-13T05:30:38;100326.44;;;-10.81;54.70
44351;BME280;62766;62.622;17.912;2022-12-13T05:33:07;100328.74;;;-10.71;54.67
44351;BME280;62766;62.622;17.912;2022-12-13T05:35:35;100322.42;;;-10.73;54.68
44351;BME280;62766;62.622;17.912;2022-12-13T05:38:04;100320.28;;;-10.86;54.78
44351;BME280;62766;62.622;17.912;2022-12-13T05:40:33;100311.81;;;-10.72;54.51
44351;BME280;62766;62.622;17.912;2022-12-13T05:43:02;100300.79;;;-10.79;54.40
44351;BME280;62766;62.622;17.912;2022-12-13T05:45:31;100301.18;;;-10.73;54.36
44351;BME280;62766;62.622;17.912;2022-12-13T05:47:59;100293.61;;;-10.72;54.39
44351;BME280;62766;62.622;17.912;2022-12-13T05:50:28;100292.44;;;-10.69;54.30
44351;BME280;62766;62.622;17.912;2022-12-13T05:52:57;100283.78;;;-10.65;54.20
44351;BME280;62766;62.622;17.912;2022-12-13T05:55:26;100273.37;;;-10.61;53.97
44351;BME280;62766;62.622;17.912;2022-12-13T05:57:56;100270.62;;;-10.65;53.77
44351;BME280;62766;62.622;17.912;2022-12-13T06:00:25;100261.09;;;-10.62;53.84
44351;BME280;62766;62.622;17.912;2022-12-13T06:02:54;100258.49;;;-10.69;53.92
44351;BME280;62766;62.622;17.912;2022-12-13T06:05:23;100262.38;;;-10.75;54.02
44351;BME280;62766;62.622;17.912;2022-12-13T06:07:53;100252.45;;;-10.80;54.16
44351;BME280;62766;62.622;17.912;2022-12-13T06:10:22;100251.91;;;-10.88;54.12
44351;BME280;62766;62.622;17.912;2022-12-13T06:12:51;100246.75;;;-10.87;53.99
44351;BME280;62766;62.622;17.912;2022-12-13T06:15:20;100238.87;;;-10.86;54.07
44351;BME280;62766;62.622;17.912;2022-12-13T06:17:49;100238.15;;;-10.74;54.15
44351;BME280;62766;62.622;17.912;2022-12-13T06:20:18;100235.68;;;-10.91;54.03
44351;BME280;62766;62.622;17.912;2022-12-13T06:22:46;100231.60;;;-10.80;54.12
44351;BME280;62766;62.622;17.912;2022-12-13T06:25:16;100231.72;;;-10.80;54.02
44351;BME280;62766;62.622;17.912;2022-12-13T06:27:44;100230.78;;;-11.01;54.10
44351;BME280;62766;62.622;17.912;2022-12-13T06:30:13;100228.66;;;-10.99;54.51
44351;BME280;62766;62.622;17.912;2022-12-13T06:32:42;100227.96;;;-11.06;54.58
44351;BME280;62766;62.622;17.912;2022-12-13T06:35:11;100218.97;;;-11.00;54.61
44351;BME280;62766;62.622;17.912;2022-12-13T06:37:41;100204.27;;;-11.01;54.66
44351;BME280;62766;62.622;17.912;2022-12-13T06:40:11;100197.32;;;-11.07;54.63
44351;BME280;62766;62.622;17.912;2022-12-13T06:42:40;100196.38;;;-11.01;54.36
44351;BME280;62766;62.622;17.912;2022-12-13T06:45:08;100182.39;;;-11.01;54.42
44351;BME280;62766;62.622;17.912;2022-12-13T06:47:37;100177.88;;;-10.94;54.22
44351;BME280;62766;62.622;17.912;2022-12-13T06:50:06;100165.63;;;-10.84;54.28
44351;BME280;62766;62.622;17.912;2022-12-13T06:52:35;100160.71;;;-10.80;54.03
44351;BME280;62766;62.622;17.912;2022-12-13T06:55:05;100154.31;;;-10.95;54.24
44351;BME280;62766;62.622;17.912;2022-12-13T06:57:33;100151.75;;;-10.92;54.28
44351;BME280;62766;62.622;17.912;2022-12-13T07:00:03;100154.09;;;-10.95;54.21
44351;BME280;62766;62.622;17.912;2022-12-13T07:02:32;100149.69;;;-11.11;54.36
44351;BME280;62766;62.622;17.912;2022-12-13T07:05:01;100140.16;;;-11.07;54.47
44351;BME280;62766;62.622;17.912;2022-12-13T07:07:31;100139.73;;;-11.11;54.53
44351;BME280;62766;62.622;17.912;2022-12-13T07:10:00;100134.80;;;-11.12;54.57
44351;BME280;62766;62.622;17.912;2022-12-13T07:12:29;100130.38;;;-11.04;54.48
44351;BME280;62766;62.622;17.912;2022-12-13T07:14:57;100128.26;;;-11.16;54.64
44351;BME280;62766;62.622;17.912;2022-12-13T07:17:26;100125.81;;;-11.14;54.56
44351;BME280;62766;62.622;17.912;2022-12-13T07:19:54;100127.98;;;-11.20;54.68
44351;BME280;62766;62.622;17.912;2022-12-13T07:22:23;100113.85;;;-11.13;54.61
44351;BME280;62766;62.622;17.912;2022-12-13T07:24:52;100113.84;;;-11.12;54.57
44351;BME280;62766;62.622;17.912;2022-12-13T07:27:21;100112.45;;;-11.21;54.48
44351;BME280;62766;62.622;17.912;2022-12-13T07:29:50;100110.45;;;-11.13;54.58
44351;BME280;62766;62.622;17.912;2022-12-13T07:32:19;100108.17;;;-11.10;54.45
44351;BME280;62766;62.622;17.912;2022-12-13T07:34:48;100111.13;;;-11.14;54.26
44351;BME280;62766;62.622;17.912;2022-12-13T07:37:17;100101.98;;;-11.19;54.33
44351;BME280;62766;62.622;17.912;2022-12-13T07:39:45;100098.83;;;-11.07;54.21
44351;BME280;62766;62.622;17.912;2022-12-13T07:42:14;100094.88;;;-11.04;54.32
44351;BME280;62766;62.622;17.912;2022-12-13T07:44:43;100089.34;;;-11.08;54.11
44351;BME280;62766;62.622;17.912;2022-12-13T07:47:12;100082.78;;;-11.10;54.03
44351;BME280;62766;62.622;17.912;2022-12-13T07:49:41;100080.14;;;-11.12;53.81
44351;BME280;62766;62.622;17.912;2022-12-13T07:52:10;100071.34;;;-10.93;53.69
44351;BME280;62766;62.622;17.912;2022-12-13T07:54:39;100065.57;;;-10.89;53.44
44351;BME280;62766;62.622;17.912;2022-12-13T07:57:07;100067.07;;;-10.84;53.31
44351;BME280;62766;62.622;17.912;2022-12-13T07:59:36;100066.71;;;-10.95;53.55
44351;BME280;62766;62.622;17.912;2022-12-13T08:02:05;100068.90;;;-11.04;53.66
44351;BME280;62766;62.622;17.912;2022-12-13T08:04:34;100063.94;;;-11.13;53.57
44351;BME280;62766;62.622;17.912;2022-12-13T08:07:05;100065.12;;;-11.10;53.82
44351;BME280;62766;62.622;17.912;2022-12-13T08:09:33;100060.57;;;-11.28;53.79
44351;BME280;62766;62.622;17.912;2022-12-13T08:12:02;100053.39;;;-11.22;53.88
44351;BME280;62766;62.622;17.912;2022-12-13T08:14:31;100049.53;;;-11.17;53.57
44351;BME280;62766;62.622;17.912;2022-12-13T08:17:00;100040.64;;;-11.19;53.65
44351;BME280;62766;62.622;17.912;2022-12-13T08:19:29;100036.58;;;-11.28;53.74
44351;BME280;62766;62.622;17.912;2022-12-13T08:21:57;100029.59;;;-11.26;53.73
44351;BME280;62766;62.622;17.912;2022-12-13T08:24:28;100028.37;;;-11.13;53.36
44351;BME280;62766;62.622;17.912;2022-12-13T08:26:59;100029.00;;;-11.09;53.28
44351;BME280;62766;62.622;17.912;2022-12-13T08:29:28;100021.10;;;-11.02;53.07
44351;BME280;62766;62.622;17.912;2022-12-13T08:31:58;100021.16;;;-11.03;52.96
44351;BME280;62766;62.622;17.912;2022-12-13T08:34:27;100020.07;;;-10.96;52.90
44351;BME280;62766;62.622;17.912;2022-12-13T08:37:02;100020.89;;;-10.96;52.86
44351;BME280;62766;62.622;17.912;2022-12-13T08:39:31;100014.25;;;-11.01;52.99
44351;BME280;62766;62.622;17.912;2022-12-13T08:41:59;100014.66;;;-11.03;53.09
44351;BME280;62766;62.622;17.912;2022-12-13T08:44:28;100011.30;;;-11.10;53.24
44351;BME280;62766;62.622;17.912;2022-12-13T08:46:57;100003.81;;;-11.12;53.24
44351;BME280;62766;62.622;17.912;2022-12-13T08:49:25;99999.16;;;-11.06;53.21
44351;BME280;62766;62.622;17.912;2022-12-13T08:51:54;99996.89;;;-11.12;53.15
44351;BME280;62766;62.622;17.912;2022-12-13T08:54:23;99993.90;;;-11.15;53.24
44351;BME280;62766;62.622;17.912;2022-12-13T08:56:52;99989.09;;;-11.16;53.29
44351;BME280;62766;62.622;17.912;2022-12-13T08:59:22;99986.06;;;-11.23;53.34
44351;BME280;62766;62.622;17.912;2022-12-13T09:01:50;99984.71;;;-11.20;53.48
44351;BME280;62766;62.622;17.912;2022-12-13T09:04:19;99990.08;;;-11.23;53.51
44351;BME280;62766;62.622;17.912;2022-12-13T09:06:47;99981.49;;;-11.14;53.42
44351;BME280;62766;62.622;17.912;2022-12-13T09:09:16;99982.38;;;-11.06;53.39
44351;BME280;62766;62.622;17.912;2022-12-13T09:11:45;99976.48;;;-10.97;53.30
44351;BME280;62766;62.622;17.912;2022-12-13T09:14:14;99972.30;;;-10.85;53.01
44351;BME280;62766;62.622;17.912;2022-12-13T09:16:43;99968.50;;;-10.87;52.99
44351;BME280;62766;62.622;17.912;2022-12-13T09:19:12;99969.78;;;-10.65;52.55
44351;BME280;62766;62.622;17.912;2022-12-13T09:21:41;99966.98;;;-10.66;52.58
44351;BME280;62766;62.622;17.912;2022-12-13T09:24:09;99964.46;;;-10.57;52.63
44351;BME280;62766;62.622;17.912;2022-12-13T09:26:38;99953.77;;;-10.59;52.26
44351;BME280;62766;62.622;17.912;2022-12-13T09:29:07;99945.47;;;-10.49;52.04
44351;BME280;62766;62.622;17.912;2022-12-13T09:31:36;99934.08;;;-10.49;51.90
44351;BME280;62766;62.622;17.912;2022-12-13T09:34:05;99933.12;;;-10.55;52.03
44351;BME280;62766;62.622;17.912;2022-12-13T09:36:33;99924.21;;;-10.47;51.91
44351;BME280;62766;62.622;17.912;2022-12-13T09:39:03;99921.28;;;-10.54;51.92
44351;BME280;62766;62.622;17.912;2022-12-13T09:41:34;99919.41;;;-10.44;51.86
44351;BME280;62766;62.622;17.912;2022-12-13T09:44:06;99917.48;;;-10.34;51.90
44351;BME280;62766;62.622;17.912;2022-12-13T09:46:42;99910.54;;;-10.40;51.77
44351;BME280;62766;62.622;17.912;2022-12-13T09:49:15;99903.41;;;-10.40;51.66
44351;BME280;62766;62.622;17.912;2022-12-13T09:51:48;99901.71;;;-10.44;51.91
44351;BME280;62766;62.622;17.912;2022-12-13T09:54:20;99891.08;;;-10.35;51.78
44351;BME280;62766;62.622;17.912;2022-12-13T09:56:49;99889.61;;;-10.35;51.87
44351;BME280;62766;62.622;17.912;2022-12-13T09:59:24;99883.32;;;-10.26;51.82
44351;BME280;62766;62.622;17.912;2022-12-13T10:01:53;99879.87;;;-10.24;51.75
44351;BME280;62766;62.622;17.912;2022-12-13T10:04:22;99880.64;;;-10.34;51.70
44351;BME280;62766;62.622;17.912;2022-12-13T10:06:52;99879.01;;;-10.31;51.73
44351;BME280;62766;62.622;17.912;2022-12-13T10:09:21;99877.52;;;-10.38;51.79
44351;BME280;62766;62.622;17.912;2022-12-13T10:11:52;99880.50;;;-10.32;51.74
44351;BME280;62766;62.622;17.912;2022-12-13T10:14:25;99879.74;;;-10.32;51.81
44351;BME280;62766;62.622;17.912;2022-12-13T10:16:59;99876.73;;;-10.32;51.93
44351;BME280;62766;62.622;17.912;2022-12-13T10:19:34;99871.09;;;-10.34;51.72
44351;BME280;62766;62.622;17.912;2022-12-13T10:22:07;99866.26;;;-10.42;51.65
44351;BME280;62766;62.622;17.912;2022-12-13T10:24:48;99871.21;;;-10.43;51.84
44351;BME280;62766;62.622;17.912;2022-12-13T10:27:18;99858.30;;;-10.46;51.95
44351;BME280;62766;62.622;17.912;2022-12-13T10:29:56;99857.34;;;-10.56;51.99
44351;BME280;62766;62.622;17.912;2022-12-13T10:32:26;99852.04;;;-10.73;52.20
44351;BME280;62766;62.622;17.912;2022-12-13T10:34:55;99842.70;;;-10.72;52.36
44351;BME280;62766;62.622;17.912;2022-12-13T10:37:27;99838.57;;;-10.74;52.35
44351;BME280;62766;62.622;17.912;2022-12-13T10:39:57;99837.98;;;-10.64;52.41
44351;BME280;62766;62.622;17.912;2022-12-13T10:42:25;99830.62;;;-10.61;52.48
44351;BME280;62766;62.622;17.912;2022-12-13T10:45:15;99824.85;;;-10.59;52.41
44351;BME280;62766;62.622;17.912;2022-12-13T10:47:44;99819.80;;;-10.55;52.15
44351;BME280;62766;62.622;17.912;2022-12-13T10:50:30;99819.36;;;-10.57;52.10
44351;BME280;62766;62.622;17.912;2022-12-13T10:52:59;99814.78;;;-10.57;52.04
44351;BME280;62766;62.622;17.912;2022-12-13T10:55:30;99812.45;;;-10.56;51.87
44351;BME280;62766;62.622;17.912;2022-12-13T10:58:01;99808.82;;;-10.56;52.04
44351;BME280;62766;62.622;17.912;2022-12-13T11:03:29;99801.02;;;-10.66;51.95
44351;BME280;62766;62.622;17.912;2022-12-13T11:06:02;99786.58;;;-10.56;51.90
44351;BME280;62766;62.622;17.912;2022-12-13T11:08:32;99777.97;;;-10.60;51.89
44351;BME280;62766;62.622;17.912;2022-12-13T11:11:02;99781.44;;;-10.55;51.85
44351;BME280;62766;62.622;17.912;2022-12-13T11:13:34;99780.19;;;-10.53;51.74
44351;BME280;62766;62.622;17.912;2022-12-13T11:16:09;99777.41;;;-10.48;51.87
44351;BME280;62766;62.622;17.912;2022-12-13T11:18:50;99776.53;;;-10.45;51.88
44351;BME280;62766;62.622;17.912;2022-12-13T11:21:23;99768.10;;;-10.30;51.79
44351;BME280;62766;62.622;17.912;2022-12-13T11:23:54;99766.29;;;-10.24;51.70
44351;BME280;62766;62.622;17.912;2022-12-13T11:26:24;99756.28;;;-10.32;51.58
44351;BME280;62766;62.622;17.912;2022-12-13T11:29:03;99750.69;;;-10.29;51.40
44351;BME280;62766;62.622;17.912;2022-12-13T11:31:43;99747.53;;;-10.07;51.26
44351;BME280;62766;62.622;17.912;2022-12-13T11:34:28;99742.98;;;-10.12;51.09
44351;BME280;62766;62.622;17.912;2022-12-13T11:37:10;99734.60;;;-10.01;51.05
44351;BME280;62766;62.622;17.912;2022-12-13T11:39:48;99729.85;;;-10.10;50.84
44351;BME280;62766;62.622;17.912;2022-12-13T11:42:26;99724.00;;;-10.02;50.99
44351;BME280;62766;62.622;17.912;2022-12-13T11:45:02;99720.58;;;-10.15;51.10
44351;BME280;62766;62.622;17.912;2022-12-13T11:47:41;99717.19;;;-10.14;51.07
44351;BME280;62766;62.622;17.912;2022-12-13T11:50:14;99710.69;;;-10.09;50.91
44351;BME280;62766;62.622;17.912;2022-12-13T11:52:47;99712.03;;;-10.07;50.63
44351;BME280;62766;62.622;17.912;2022-12-13T11:55:20;99712.14;;;-10.18;50.91
44351;BME280;62766;62.622;17.912;2022-12-13T11:57:56;99707.46;;;-10.16;50.82
44351;BME280;62766;62.622;17.912;2022-12-13T12:00:31;99703.93;;;-10.21;51.03
44351;BME280;62766;62.622;17.912;2022-12-13T12:03:13;99708.42;;;-10.29;51.29
44351;BME280;62766;62.622;17.912;2022-12-13T12:05:47;99701.61;;;-10.39;51.42
44351;BME280;62766;62.622;17.912;2022-12-13T12:08:21;99700.12;;;-10.37;51.33
44351;BME280;62766;62.622;17.912;2022-12-13T12:10:59;99697.98;;;-10.45;51.41
44351;BME280;62766;62.622;17.912;2022-12-13T12:13:33;99696.14;;;-10.58;51.53
44351;BME280;62766;62.622;17.912;2022-12-13T12:16:09;99697.90;;;-10.43;51.51
44351;BME280;62766;62.622;17.912;2022-12-13T12:18:40;99699.44;;;-10.35;51.57
44351;BME280;62766;62.622;17.912;2022-12-13T12:21:23;99692.39;;;-10.37;51.72
44351;BME280;62766;62.622;17.912;2022-12-13T12:24:07;99683.82;;;-10.32;51.79
44351;BME280;62766;62.622;17.912;2022-12-13T12:26:42;99676.36;;;-10.37;51.59
44351;BME280;62766;62.622;17.912;2022-12-13T12:29:27;99668.74;;;-10.42;51.56
44351;BME280;62766;62.622;17.912;2022-12-13T12:32:08;99663.90;;;-10.31;51.78
44351;BME280;62766;62.622;17.912;2022-12-13T12:34:46;99661.94;;;-10.45;51.82
44351;BME280;62766;62.622;17.912;2022-12-13T12:37:24;99657.78;;;-10.47;51.64
44351;BME280;62766;62.622;17.912;2022-12-13T12:40:14;99651.37;;;-10.38;51.74
44351;BME280;62766;62.622;17.912;2022-12-13T12:42:54;99654.67;;;-10.35;51.75
44351;BME280;62766;62.622;17.912;2022-12-13T12:45:35;99650.85;;;-10.48;51.77
44351;BME280;62766;62.622;17.912;2022-12-13T12:48:18;99637.82;;;-10.52;51.83
44351;BME280;62766;62.622;17.912;2022-12-13T12:50:53;99640.88;;;-10.50;51.98
44351;BME280;62766;62.622;17.912;2022-12-13T12:53:33;99641.14;;;-10.55;52.08
44351;BME280;62766;62.622;17.912;2022-12-13T12:56:20;99642.46;;;-10.61;52.19
44351;BME280;62766;62.622;17.912;2022-12-13T12:58:59;99635.76;;;-10.51;52.40
44351;BME280;62766;62.622;17.912;2022-12-13T13:01:48;99635.74;;;-10.51;52.47